Time;durP1;ratioP1;P1;durP2;ratioP2;P2;SDS_P1;SDS_P2;PMS_P1;PMS_P2;Temp;Humidity;BMP_temperature;BMP_pressure;BME280_temperature;BME280_humidity;BME280_pressure;Samples;Min_cycle;Max_cycle;Signal;HPM_P1;HPM_P2
2023/09/09 00:01:17;;;;;;;14.57;9.27;;;;;;;24.93;52.94;101495.59;5037148;27;98926;-74
2023/09/09 00:03:43;;;;;;;11.90;9.15;;;;;;;24.78;54.18;101501.38;5037277;27;98788;-74
2023/09/09 00:06:10;;;;;;;18.02;9.50;;;;;;;24.89;53.70;101501.31;5040830;27;97188;-74
2023/09/09 00:08:36;;;;;;;13.32;9.50;;;;;;;24.69;54.91;101500.28;5032567;27;96955;-75
2023/09/09 00:11:03;;;;;;;15.07;9.48;;;;;;;24.51;55.53;101499.09;5037060;27;99190;-75
2023/09/09 00:13:30;;;;;;;13.15;9.02;;;;;;;24.59;55.47;101494.78;5036516;27;98768;-74
2023/09/09 00:15:57;;;;;;;16.88;9.25;;;;;;;24.60;55.93;101491.09;5030557;27;98652;-74
2023/09/09 00:18:23;;;;;;;12.32;9.25;;;;;;;24.59;56.04;101500.19;5030217;27;97106;-75
2023/09/09 00:20:50;;;;;;;11.63;9.07;;;;;;;24.37;56.46;101493.97;5028242;27;101489;-75
2023/09/09 00:23:16;;;;;;;11.68;9.00;;;;;;;24.41;56.33;101496.31;5030924;28;98921;-75
2023/09/09 00:25:43;;;;;;;11.18;8.45;;;;;;;24.37;56.19;101491.25;5029807;27;97241;-75
2023/09/09 00:28:12;;;;;;;20.13;9.75;;;;;;;24.40;56.11;101493.72;5031688;28;97823;-74
2023/09/09 00:30:39;;;;;;;19.85;10.20;;;;;;;24.36;56.56;101486.84;5026384;27;103041;-74
2023/09/09 00:33:07;;;;;;;13.68;9.35;;;;;;;24.19;57.77;101499.88;5029731;28;101018;-75
2023/09/09 00:35:34;;;;;;;15.13;9.35;;;;;;;24.20;58.05;101490.81;5028216;27;96924;-76
2023/09/09 00:38:00;;;;;;;16.90;10.30;;;;;;;24.18;58.60;101498.13;5027190;27;96915;-75
2023/09/09 00:40:27;;;;;;;19.27;10.00;;;;;;;24.17;58.67;101493.72;5025544;27;99143;-74
2023/09/09 00:42:53;;;;;;;16.50;9.30;;;;;;;24.14;58.87;101496.66;5024769;27;101367;-74
2023/09/09 00:45:20;;;;;;;13.60;9.93;;;;;;;24.25;58.22;101490.41;5028768;27;96838;-74
2023/09/09 00:47:48;;;;;;;17.80;9.05;;;;;;;24.02;58.85;101492.25;5030805;27;98238;-75
2023/09/09 00:50:14;;;;;;;14.93;9.75;;;;;;;;;;5030126;27;97868;-75
2023/09/09 00:52:42;;;;;;;15.18;9.38;;;;;;;23.96;58.18;101490.03;5031712;27;99516;-74
2023/09/09 00:55:11;;;;;;;15.85;9.90;;;;;;;23.89;58.49;101491.53;5029038;27;96970;-74
2023/09/09 00:57:38;;;;;;;12.45;8.90;;;;;;;24.00;58.48;101494.22;5028593;27;97031;-74
2023/09/09 01:00:09;;;;;;;17.15;10.05;;;;;;;23.91;59.33;101489.53;5027754;27;98839;-74
2023/09/09 01:02:36;;;;;;;13.93;9.60;;;;;;;23.85;59.99;101490.03;5029406;27;98751;-74
2023/09/09 01:05:05;;;;;;;15.50;10.25;;;;;;;23.67;60.50;101486.94;5027591;27;98144;-75
2023/09/09 01:07:42;;;;;;;16.10;9.90;;;;;;;23.70;60.53;101485.84;5029943;27;97203;-75
2023/09/09 01:10:09;;;;;;;15.93;9.93;;;;;;;23.66;60.47;101487.94;5028568;27;98995;-74
2023/09/09 01:12:35;;;;;;;15.82;10.27;;;;;;;23.84;59.85;101482.91;5035092;27;99070;-75
2023/09/09 01:15:02;;;;;;;14.32;10.07;;;;;;;23.87;59.85;101485.38;5042715;27;96817;-74
2023/09/09 01:17:29;;;;;;;16.35;10.43;;;;;;;23.83;60.04;101483.88;5032004;27;96817;-75
2023/09/09 01:19:58;;;;;;;17.80;9.93;;;;;;;23.88;59.97;101484.41;5038710;27;98598;-74
2023/09/09 01:22:33;;;;;;;13.60;9.63;;;;;;;23.86;60.17;101486.34;5037436;27;97547;-74
2023/09/09 01:25:00;;;;;;;13.55;9.45;;;;;;;23.88;60.00;101486.25;5030887;27;96753;-75
2023/09/09 01:27:26;;;;;;;13.25;9.70;;;;;;;23.80;60.27;101481.44;5031805;27;97129;-74
2023/09/09 01:29:52;;;;;;;15.20;10.15;;;;;;;23.88;60.22;101473.59;5030010;27;98974;-73
2023/09/09 01:32:19;;;;;;;15.10;9.60;;;;;;;23.63;60.52;101482.75;5029719;27;99220;-74
2023/09/09 01:34:45;;;;;;;16.05;9.98;;;;;;;23.69;60.74;101484.13;5036815;27;96959;-74
2023/09/09 01:37:11;;;;;;;16.88;10.15;;;;;;;23.57;61.46;101479.69;5040082;27;96828;-74
2023/09/09 01:39:39;;;;;;;13.68;10.15;;;;;;;23.68;61.74;101474.31;5042784;27;98861;-74
2023/09/09 01:42:06;;;;;;;14.07;10.60;;;;;;;23.66;61.50;101473.56;5036622;27;99047;-74
2023/09/09 01:44:32;;;;;;;16.42;10.88;;;;;;;23.48;62.01;101475.03;5044090;27;99732;-74
2023/09/09 01:46:59;;;;;;;14.13;10.05;;;;;;;23.57;61.66;101469.75;5039157;27;96709;-73
2023/09/09 01:49:25;;;;;;;17.77;10.35;;;;;;;23.37;63.31;101476.66;5035471;27;98944;-75
2023/09/09 01:51:51;;;;;;;12.43;10.23;;;;;;;23.33;63.41;101477.91;5045951;27;101066;-73
2023/09/09 01:54:18;;;;;;;12.68;10.07;;;;;;;23.42;63.75;101477.19;5041470;27;96700;-73
2023/09/09 01:56:46;;;;;;;13.63;10.13;;;;;;;23.42;63.41;101479.03;5039080;27;97025;-73
2023/09/09 01:59:12;;;;;;;13.68;9.95;;;;;;;23.30;63.60;101470.03;5040630;27;99107;-74
2023/09/09 02:01:38;;;;;;;12.32;10.23;;;;;;;23.23;64.15;101470.66;5039032;27;98753;-74
2023/09/09 02:04:05;;;;;;;17.30;10.63;;;;;;;23.12;64.43;101467.91;5048723;27;96677;-73
2023/09/09 02:06:31;;;;;;;12.95;9.68;;;;;;;23.34;63.82;101468.84;5034387;27;96813;-74
2023/09/09 02:09:01;;;;;;;15.25;11.38;;;;;;;23.39;63.51;101469.31;5038369;27;98947;-74
2023/09/09 02:11:27;;;;;;;14.27;10.43;;;;;;;23.31;63.67;101466.34;5032484;27;99360;-74
2023/09/09 02:13:54;;;;;;;15.98;11.05;;;;;;;23.29;63.55;101476.44;5032278;27;96851;-74
2023/09/09 02:16:21;;;;;;;12.32;9.82;;;;;;;23.36;63.62;101466.88;5029239;27;98970;-74
2023/09/09 02:18:48;;;;;;;16.40;10.35;;;;;;;23.23;64.39;101470.66;5032743;27;98961;-74
2023/09/09 02:21:24;;;;;;;15.38;10.18;;;;;;;23.18;64.59;101467.41;5032249;27;98843;-74
2023/09/09 02:24:00;;;;;;;;;;;;;;;23.15;65.20;101473.94;5032591;27;97767;-75
2023/09/09 02:26:42;;;;;;;14.77;10.02;;;;;;;23.12;65.02;101467.91;5032061;27;98734;-74
2023/09/09 02:29:19;;;;;;;16.45;10.30;;;;;;;23.28;64.22;101465.75;5027105;27;98071;-75
2023/09/09 02:31:46;;;;;;;14.82;10.18;;;;;;;23.26;64.09;101470.41;5027817;27;97723;-74
2023/09/09 02:34:12;;;;;;;17.55;10.48;;;;;;;23.11;64.63;101464.34;5031229;27;97162;-74
2023/09/09 02:36:44;;;;;;;21.38;11.00;;;;;;;22.83;66.17;101472.81;5031237;27;96852;-74
2023/09/09 02:39:11;;;;;;;15.25;10.35;;;;;;;23.05;65.40;101467.50;5031799;27;97834;-74
2023/09/09 02:41:37;;;;;;;16.40;9.93;;;;;;;22.94;65.94;101467.47;5034480;27;101707;-74
2023/09/09 02:44:04;;;;;;;13.48;10.15;;;;;;;23.04;64.98;101460.38;5032621;27;96948;-74
2023/09/09 02:46:31;;;;;;;14.65;10.60;;;;;;;22.96;65.21;101455.63;5031815;27;96777;-74
2023/09/09 02:48:58;;;;;;;15.00;10.23;;;;;;;22.71;66.49;101457.56;5030736;27;102110;-73
2023/09/09 02:51:25;;;;;;;13.90;10.23;;;;;;;22.80;66.24;101459.56;5032490;27;99262;-74
2023/09/09 02:53:52;;;;;;;13.63;10.38;;;;;;;22.86;66.23;101461.78;5031212;27;96830;-74
2023/09/09 02:56:19;;;;;;;12.57;9.68;;;;;;;22.83;66.35;101464.75;5031814;27;97032;-74
2023/09/09 02:58:45;;;;;;;16.42;10.55;;;;;;;22.69;66.89;101456.78;5030853;27;98863;-74
2023/09/09 03:01:12;;;;;;;18.63;11.30;;;;;;;22.61;67.14;101452.84;5031892;27;101556;-74
2023/09/09 03:03:39;;;;;;;16.58;10.70;;;;;;;22.58;67.57;101455.75;5031719;27;96797;-74
2023/09/09 03:06:11;;;;;;;12.57;10.40;;;;;;;22.49;68.19;101455.59;5031889;27;97963;-74
2023/09/09 03:08:37;;;;;;;15.07;11.10;;;;;;;22.64;67.42;101451.75;5031246;27;99398;-73
2023/09/09 03:11:04;;;;;;;15.93;10.45;;;;;;;22.60;67.25;101450.25;5030005;27;98830;-74
2023/09/09 03:13:30;;;;;;;16.73;10.85;;;;;;;22.69;66.70;101454.97;5030858;27;97647;-74
2023/09/09 03:15:56;;;;;;;17.35;11.27;;;;;;;22.71;66.38;101452.16;5027744;27;97240;-74
2023/09/09 03:18:23;;;;;;;18.33;11.10;;;;;;;22.76;65.79;101456.25;5032965;27;98140;-74
2023/09/09 03:20:50;;;;;;;16.77;10.60;;;;;;;22.94;65.04;101457.56;5031255;27;101407;-74
2023/09/09 03:23:17;;;;;;;13.50;10.45;;;;;;;22.76;65.14;101458.94;5029935;27;96780;-75
2023/09/09 03:25:43;;;;;;;15.98;11.43;;;;;;;22.90;64.72;101457.91;5038747;27;97045;-75
2023/09/09 03:28:10;;;;;;;16.08;10.90;;;;;;;23.02;64.10;101457.84;5033294;27;99192;-74
2023/09/09 03:30:55;;;;;;;17.40;10.27;;;;;;;23.22;62.60;101459.00;5036714;27;98776;-74
2023/09/09 03:33:21;;;;;;;13.88;10.98;;;;;;;23.16;62.84;101455.91;5028036;27;96876;-75
2023/09/09 03:35:47;;;;;;;16.13;10.88;;;;;;;23.15;62.55;101463.16;5031095;27;96917;-74
2023/09/09 03:38:15;;;;;;;14.13;10.50;;;;;;;23.09;62.55;101465.44;5030245;27;98931;-74
2023/09/09 03:40:43;;;;;;;15.40;10.60;;;;;;;23.34;61.63;101467.97;5029369;27;102006;-75
2023/09/09 03:43:09;;;;;;;23.90;11.07;;;;;;;23.27;61.77;101467.59;5031654;27;96824;-74
2023/09/09 03:45:36;;;;;;;14.80;11.30;;;;;;;23.19;62.55;101467.31;5030778;27;96885;-74
2023/09/09 03:48:04;;;;;;;13.88;9.98;;;;;;;23.00;62.99;101461.59;5025834;27;101682;-74
2023/09/09 03:50:30;;;;;;;16.92;10.82;;;;;;;23.16;62.58;101467.56;5027733;27;98795;-74
2023/09/09 03:52:57;;;;;;;17.77;11.15;;;;;;;23.12;62.37;101463.38;5029918;27;97571;-74
2023/09/09 03:55:24;;;;;;;16.90;10.65;;;;;;;23.09;62.08;101463.63;5030543;27;97335;-75
2023/09/09 03:57:52;;;;;;;14.55;10.82;;;;;;;23.25;61.67;101468.66;5030850;27;97891;-73
2023/09/09 04:00:18;;;;;;;13.27;10.63;;;;;;;23.18;61.63;101470.13;5031023;27;97806;-73
2023/09/09 04:02:47;;;;;;;19.02;11.32;;;;;;;23.01;62.71;101471.41;5030534;27;97611;-73
2023/09/09 04:05:14;;;;;;;18.73;11.05;;;;;;;23.12;62.19;101468.75;5030187;27;96846;-74
2023/09/09 04:07:43;;;;;;;16.33;10.75;;;;;;;23.07;62.28;101459.31;5029400;27;97712;-73
2023/09/09 04:10:10;;;;;;;15.38;10.85;;;;;;;23.16;61.96;101469.41;5029946;27;99221;-73
2023/09/09 04:12:38;;;;;;;16.08;10.75;;;;;;;23.26;61.21;101457.78;5028860;27;98992;-74
2023/09/09 04:15:06;;;;;;;14.93;11.65;;;;;;;23.15;61.44;101457.75;5028821;27;96871;-74
2023/09/09 04:17:32;;;;;;;13.98;10.60;;;;;;;23.12;61.68;101457.09;5027216;27;98402;-74
2023/09/09 04:19:59;;;;;;;16.98;11.57;;;;;;;22.89;62.70;101467.84;5030451;27;98148;-74
2023/09/09 04:22:26;;;;;;;16.83;11.13;;;;;;;23.03;62.26;101462.25;5030376;27;96953;-73
2023/09/09 04:24:55;;;;;;;19.90;11.88;;;;;;;23.08;62.23;101466.44;5028002;27;99370;-73
2023/09/09 04:27:21;;;;;;;19.90;11.20;;;;;;;22.88;62.88;101462.56;5030701;27;99098;-74
2023/09/09 04:29:49;;;;;;;22.65;11.88;;;;;;;22.98;62.63;101463.56;5030105;28;97719;-74
2023/09/09 04:32:15;;;;;;;17.90;11.50;;;;;;;22.67;63.53;101464.97;5030964;27;96752;-74
2023/09/09 04:34:42;;;;;;;15.43;10.73;;;;;;;23.00;62.71;101453.53;5030078;27;96919;-74
2023/09/09 04:37:08;;;;;;;20.50;11.73;;;;;;;22.99;62.67;101463.44;5028698;27;99013;-74
2023/09/09 04:39:35;;;;;;;16.30;11.35;;;;;;;22.88;63.02;101462.56;5027978;27;100498;-74
2023/09/09 04:42:01;;;;;;;17.83;10.27;;;;;;;22.95;62.79;101461.09;5030546;27;96831;-75
2023/09/09 04:44:28;;;;;;;14.32;11.80;;;;;;;22.74;63.50;101462.72;5029539;27;96968;-74
2023/09/09 04:46:55;;;;;;;18.00;11.10;;;;;;;22.86;63.09;101462.66;5029755;27;98928;-74
2023/09/09 04:49:22;;;;;;;15.80;10.95;;;;;;;22.78;63.67;101456.97;5031065;27;99028;-73
2023/09/09 04:51:49;;;;;;;20.42;10.88;;;;;;;22.86;63.28;101459.97;5029846;27;96840;-75
2023/09/09 04:54:15;;;;;;;19.10;11.73;;;;;;;22.88;63.25;101459.84;5030497;27;96809;-74
2023/09/09 04:56:44;;;;;;;13.73;11.13;;;;;;;22.90;63.08;101455.22;5026798;27;99691;-74
2023/09/09 04:59:10;;;;;;;15.13;11.15;;;;;;;22.80;63.17;101460.44;5030270;27;98782;-74
2023/09/09 05:01:36;;;;;;;20.55;11.55;;;;;;;22.81;63.14;101461.28;5029187;27;96887;-74
2023/09/09 05:04:05;;;;;;;15.90;11.93;;;;;;;22.79;63.29;101465.94;5030302;27;96871;-75
2023/09/09 05:06:31;;;;;;;16.08;11.27;;;;;;;22.85;63.22;101457.38;5029601;27;100708;-75
2023/09/09 05:08:57;;;;;;;15.48;11.00;;;;;;;23.03;62.30;101456.00;5030425;27;98108;-75
2023/09/09 05:11:24;;;;;;;17.85;10.95;;;;;;;23.09;62.09;101460.91;5028410;27;97863;-74
2023/09/09 05:13:50;;;;;;;16.10;11.50;;;;;;;23.27;61.70;101462.19;5030633;27;96909;-74
2023/09/09 05:16:16;;;;;;;16.55;11.75;;;;;;;23.19;61.84;101464.63;5029677;27;99166;-74
2023/09/09 05:18:43;;;;;;;19.25;11.75;;;;;;;23.21;61.15;101468.06;5032727;27;99155;-74
2023/09/09 05:21:10;;;;;;;16.73;10.73;;;;;;;23.24;61.12;101466.94;5033354;27;97197;-74
2023/09/09 05:23:37;;;;;;;18.92;10.95;;;;;;;23.48;59.98;101469.63;5032733;27;96800;-74
2023/09/09 05:26:03;;;;;;;15.48;11.55;;;;;;;23.22;61.23;101464.41;5032830;27;99544;-74
2023/09/09 05:28:29;;;;;;;14.82;11.20;;;;;;;23.45;60.39;101473.38;5033408;27;100699;-74
2023/09/09 05:30:56;;;;;;;18.25;11.10;;;;;;;23.26;61.29;101468.56;5032165;27;97356;-74
2023/09/09 05:33:22;;;;;;;20.85;12.20;;;;;;;23.39;60.42;101469.31;5032374;27;97227;-74
2023/09/09 05:35:50;;;;;;;17.20;10.88;;;;;;;23.58;60.12;101471.47;5032226;27;101010;-73
2023/09/09 05:38:18;;;;;;;19.27;11.20;;;;;;;23.49;59.94;101469.53;5033346;27;99263;-74
2023/09/09 05:40:44;;;;;;;18.02;11.52;;;;;;;23.59;59.92;101472.34;5031178;27;96912;-74
2023/09/09 05:43:10;;;;;;;19.70;11.35;;;;;;;23.75;59.38;101478.25;5033866;27;97015;-73
2023/09/09 05:45:37;;;;;;;18.17;10.52;;;;;;;23.92;58.64;101480.47;5033418;27;99364;-74
2023/09/09 05:48:04;;;;;;;18.42;11.23;;;;;;;23.95;58.29;101477.53;5031863;27;98772;-74
2023/09/09 05:50:30;;;;;;;21.10;11.30;;;;;;;23.91;58.11;101470.63;5030209;27;96861;-74
2023/09/09 05:52:57;;;;;;;16.50;11.13;;;;;;;23.92;57.87;101477.75;5026517;27;96982;-73
2023/09/09 05:55:25;;;;;;;15.93;10.38;;;;;;;23.83;58.66;101478.47;5031551;27;99496;-75
2023/09/09 05:57:53;;;;;;;14.75;10.65;;;;;;;23.96;58.71;101476.53;5032462;27;99281;-75
2023/09/09 06:00:20;;;;;;;17.67;10.82;;;;;;;24.00;58.47;101478.00;5032853;27;96793;-74
2023/09/09 06:02:47;;;;;;;19.90;11.40;;;;;;;24.06;58.23;101477.53;5031129;27;97278;-74
2023/09/09 06:05:15;;;;;;;16.40;10.35;;;;;;;24.18;57.80;101481.06;5032335;27;98110;-74
2023/09/09 06:07:41;;;;;;;15.68;11.15;;;;;;;24.11;57.48;101478.00;5032087;27;99151;-73
2023/09/09 06:10:08;;;;;;;18.20;10.25;;;;;;;24.18;57.50;101481.06;5031562;27;96828;-75
2023/09/09 06:12:36;;;;;;;15.95;10.30;;;;;;;24.01;57.68;101484.28;5031593;27;97115;-74
2023/09/09 06:15:03;;;;;;;19.67;10.30;;;;;;;24.06;57.32;101482.06;5031227;27;99183;-74
2023/09/09 06:17:30;;;;;;;13.35;10.25;;;;;;;24.28;56.74;101489.31;5031988;27;101555;-73
2023/09/09 06:19:56;;;;;;;16.20;11.13;;;;;;;24.56;56.13;101492.31;5030665;27;96831;-73
2023/09/09 06:22:22;;;;;;;17.92;9.85;;;;;;;24.44;56.19;101485.22;5031859;27;97008;-73
2023/09/09 06:24:49;;;;;;;13.32;10.10;;;;;;;24.69;55.74;101494.00;5032609;27;97956;-74
2023/09/09 06:27:15;;;;;;;12.52;10.18;;;;;;;24.78;55.07;101496.81;5031868;27;99729;-73
2023/09/09 06:29:43;;;;;;;13.88;9.40;;;;;;;24.65;55.17;101498.81;5030338;27;97408;-74
2023/09/09 06:32:10;;;;;;;13.35;9.68;;;;;;;24.47;54.93;101492.25;5031369;27;96841;-74
2023/09/09 06:34:36;;;;;;;18.45;9.05;;;;;;;24.55;55.21;101497.84;5031534;27;99045;-74
2023/09/09 06:37:03;;;;;;;14.80;10.27;;;;;;;24.61;55.08;101500.91;5031364;27;98787;-73
2023/09/09 06:39:29;;;;;;;16.02;10.10;;;;;;;24.87;53.89;101496.06;5033016;27;96868;-74
2023/09/09 06:41:55;;;;;;;14.57;9.68;;;;;;;24.87;53.75;101503.31;5031161;27;96949;-73
2023/09/09 06:44:22;;;;;;;15.02;9.52;;;;;;;24.68;54.35;101495.03;5032411;27;98141;-74
2023/09/09 06:46:49;;;;;;;13.52;9.35;;;;;;;24.77;54.31;101505.91;5029115;27;101731;-74
2023/09/09 06:49:17;;;;;;;15.80;9.30;;;;;;;24.71;53.96;101501.03;5032632;27;96857;-74
2023/09/09 06:51:43;;;;;;;16.25;10.13;;;;;;;24.66;54.03;101502.38;5031245;27;97006;-73
2023/09/09 06:54:09;;;;;;;12.55;9.93;;;;;;;24.70;53.90;101498.44;5032760;27;99302;-74
2023/09/09 06:56:36;;;;;;;14.60;9.75;;;;;;;25.07;53.27;101517.91;5032022;27;97392;-74
2023/09/09 06:59:03;;;;;;;15.20;9.85;;;;;;;25.04;52.66;101518.13;5031273;27;97974;-74
2023/09/09 07:01:30;;;;;;;13.80;9.93;;;;;;;25.06;52.49;101514.34;5031467;27;96811;-74
2023/09/09 07:03:57;;;;;;;19.17;9.45;;;;;;;25.25;52.04;101517.19;5029317;27;98954;-74
2023/09/09 07:06:24;;;;;;;13.68;9.40;;;;;;;25.28;52.11;101510.66;5031595;27;99242;-74
2023/09/09 07:08:50;;;;;;;15.15;9.65;;;;;;;25.21;52.38;101520.28;5030866;27;99203;-74
2023/09/09 07:11:17;;;;;;;13.40;8.82;;;;;;;25.64;51.41;101518.34;5029627;27;97654;-73
2023/09/09 07:13:43;;;;;;;13.93;8.95;;;;;;;25.62;51.41;101517.63;5032959;27;98931;-73
2023/09/09 07:16:10;;;;;;;14.93;9.88;;;;;;;25.80;50.29;101515.16;5041082;27;97746;-74
2023/09/09 07:18:36;;;;;;;15.30;9.23;;;;;;;25.92;50.11;101511.41;5036170;27;96665;-74
2023/09/09 07:21:04;;;;;;;15.98;9.35;;;;;;;25.91;49.97;101508.81;5033683;27;96809;-74
2023/09/09 07:23:30;;;;;;;12.52;8.75;;;;;;;25.88;49.83;101511.78;5037025;27;98134;-73
2023/09/09 07:25:57;;;;;;;13.25;8.95;;;;;;;25.98;49.76;101516.28;5040670;27;102192;-73
2023/09/09 07:28:24;;;;;;;11.73;9.57;;;;;;;26.08;49.51;101509.03;5038621;27;96991;-74
2023/09/09 07:30:50;;;;;;;14.18;9.25;;;;;;;26.41;49.23;101505.19;5039055;27;97283;-73
2023/09/09 07:33:17;;;;;;;10.35;8.15;;;;;;;26.47;48.50;101501.94;5032655;27;98694;-74
2023/09/09 07:35:44;;;;;;;13.95;9.73;;;;;;;26.51;48.53;101502.53;5031977;27;98767;-73
2023/09/09 07:38:11;;;;;;;13.20;9.00;;;;;;;26.80;47.47;101500.72;5032728;27;97321;-73
2023/09/09 07:40:38;;;;;;;16.65;8.18;;;;;;;26.95;47.40;101506.63;5031194;27;96798;-74
2023/09/09 07:43:05;;;;;;;14.18;7.55;;;;;;;26.96;47.15;101501.06;5030521;27;98854;-74
2023/09/09 07:45:31;;;;;;;11.20;8.18;;;;;;;27.12;46.05;101500.47;5027990;27;99477;-74
2023/09/09 07:47:58;;;;;;;12.05;7.35;;;;;;;27.49;45.37;101502.44;5031156;27;97654;-75
2023/09/09 07:50:26;;;;;;;10.82;7.90;;;;;;;27.58;45.45;101504.31;5029428;27;99292;-75
2023/09/09 07:52:52;;;;;;;11.38;7.53;;;;;;;27.83;44.66;101508.25;5028211;27;98867;-74
2023/09/09 07:55:20;;;;;;;14.45;7.40;;;;;;;28.03;43.43;101513.47;5030658;27;99315;-74
2023/09/09 07:57:46;;;;;;;11.70;7.47;;;;;;;27.76;43.04;101508.00;5029633;27;96737;-73
2023/09/09 08:00:30;;;;;;;10.82;7.60;;;;;;;28.02;42.61;101503.63;5030714;27;97000;-75
2023/09/09 08:02:57;;;;;;;11.48;7.05;;;;;;;28.34;42.52;101503.22;5028862;27;100367;-74
2023/09/09 08:05:23;;;;;;;9.85;6.60;;;;;;;28.55;42.11;101509.22;5030454;28;99777;-74
2023/09/09 08:07:49;;;;;;;10.55;7.38;;;;;;;28.35;42.02;101509.50;5027932;27;96752;-74
2023/09/09 08:10:17;;;;;;;10.02;7.45;;;;;;;28.57;41.21;101502.78;5029719;27;97702;-74
2023/09/09 08:12:44;;;;;;;11.05;6.60;;;;;;;28.80;40.63;101510.41;5029330;27;100720;-74
2023/09/09 08:15:11;;;;;;;11.57;6.93;;;;;;;28.68;40.63;101511.59;5031218;28;99408;-75
2023/09/09 08:17:38;;;;;;;8.77;6.32;;;;;;;28.87;40.71;101513.38;5030537;27;96783;-73
2023/09/09 08:20:07;;;;;;;17.58;6.90;;;;;;;29.42;39.76;101505.88;5030760;28;96874;-71
2023/09/09 08:22:34;;;;;;;11.98;7.13;;;;;;;29.28;39.68;101514.56;5029423;28;99500;-70
2023/09/09 08:25:00;;;;;;;9.43;6.60;;;;;;;28.84;39.42;101506.34;5028820;27;97480;-70
2023/09/09 08:27:28;;;;;;;9.07;7.20;;;;;;;28.89;39.66;101514.91;5030070;27;96799;-70
2023/09/09 08:29:55;;;;;;;9.32;7.10;;;;;;;28.97;39.81;101510.56;5029144;27;96827;-70
2023/09/09 08:32:22;;;;;;;10.75;6.18;;;;;;;29.30;39.21;101501.66;5029768;27;99537;-70
2023/09/09 08:34:51;;;;;;;7.25;6.47;;;;;;;29.45;38.34;101510.16;5031026;27;99026;-72
2023/09/09 08:37:18;;;;;;;7.82;6.10;;;;;;;29.17;39.33;101509.38;5028657;27;96760;-71
2023/09/09 08:39:45;;;;;;;11.30;6.03;;;;;;;29.15;39.31;101514.13;5023462;27;96898;-70
2023/09/09 08:42:20;;;;;;;9.38;6.20;;;;;;;29.66;39.09;101508.81;5029763;27;97899;-72
2023/09/09 08:44:59;;;;;;;13.27;6.13;;;;;;;29.71;37.29;101517.34;5029702;27;99448;-70
2023/09/09 08:47:29;;;;;;;7.78;6.15;;;;;;;29.68;37.38;101506.75;5027112;27;97249;-71
2023/09/09 08:50:00;;;;;;;12.00;6.20;;;;;;;29.57;37.92;101509.75;5027134;27;96933;-70
2023/09/09 08:52:28;;;;;;;7.95;6.13;;;;;;;29.45;37.38;101512.88;5032370;27;97175;-70
2023/09/09 08:54:54;;;;;;;11.35;5.80;;;;;;;29.69;36.92;101513.06;5032697;27;99410;-70
2023/09/09 08:57:21;;;;;;;11.95;6.82;;;;;;;29.80;37.35;101514.69;5031514;28;96843;-69
2023/09/09 08:59:49;;;;;;;6.88;5.70;;;;;;;29.61;37.46;101511.13;5032968;27;98885;-71
2023/09/09 09:02:15;;;;;;;11.07;5.93;;;;;;;29.49;37.07;101515.13;5033117;27;99044;-70
2023/09/09 09:04:44;;;;;;;12.65;6.05;;;;;;;29.82;36.96;101512.63;5032445;27;98867;-71
2023/09/09 09:07:13;;;;;;;11.40;6.03;;;;;;;29.90;36.83;101507.25;5027222;28;97077;-70
2023/09/09 09:09:40;;;;;;;6.75;5.00;;;;;;;30.23;36.47;101500.97;5032455;27;97041;-73
2023/09/09 09:12:08;;;;;;;7.00;5.82;;;;;;;29.98;36.28;101502.72;5028168;27;97861;-70
2023/09/09 09:14:35;;;;;;;11.55;6.10;;;;;;;30.13;36.20;101500.22;5031930;27;98398;-70
2023/09/09 09:17:05;;;;;;;10.13;5.93;;;;;;;30.25;36.07;101501.66;5035835;27;96987;-75
2023/09/09 09:19:36;;;;;;;14.23;5.57;;;;;;;30.08;35.98;101503.44;5038716;27;97270;-73
2023/09/09 09:22:04;;;;;;;9.65;5.93;;;;;;;30.25;35.67;101503.53;5037599;27;99651;-71
2023/09/09 09:24:41;;;;;;;7.38;5.53;;;;;;;30.26;34.64;101508.81;5027958;27;101059;-70
2023/09/09 09:27:10;;;;;;;9.45;5.90;;;;;;;30.08;35.21;101505.31;5028001;28;96812;-72
2023/09/09 09:29:40;;;;;;;9.50;5.57;;;;;;;30.25;35.33;101503.53;5031065;28;98584;-71
2023/09/09 09:32:07;;;;;;;9.13;7.63;;;;;;;30.37;35.60;101502.22;5028379;28;97695;-71
2023/09/09 09:34:35;;;;;;;13.38;5.68;;;;;;;30.51;35.42;101500.78;5030183;28;102144;-74
2023/09/09 09:37:09;;;;;;;13.50;5.32;;;;;;;30.75;34.68;101498.09;5031505;28;98522;-73
2023/09/09 09:39:35;;;;;;;12.32;5.63;;;;;;;30.69;34.51;101496.91;5029173;27;97586;-71
2023/09/09 09:42:02;;;;;;;8.70;5.40;;;;;;;30.54;34.84;101498.56;5020878;27;98923;-69
2023/09/09 09:44:29;;;;;;;11.65;5.57;;;;;;;30.49;34.80;101496.34;5027656;27;99277;-71
2023/09/09 09:47:03;;;;;;;9.07;5.75;;;;;;;30.68;34.67;101487.00;5029868;27;97363;-70
2023/09/09 09:49:34;;;;;;;9.88;5.97;;;;;;;30.87;34.65;101489.41;5027819;27;97703;-70
2023/09/09 09:52:01;;;;;;;10.73;5.82;;;;;;;31.12;33.60;101493.06;5027607;27;101793;-70
2023/09/09 09:54:28;;;;;;;13.82;5.50;;;;;;;31.08;34.08;101485.38;5029257;27;98756;-71
2023/09/09 09:56:58;;;;;;;7.88;5.10;;;;;;;30.88;33.25;101484.81;5031899;27;97338;-69
2023/09/09 09:59:27;;;;;;;9.80;5.25;;;;;;;31.04;33.67;101484.84;5032256;27;96952;-70
2023/09/09 10:01:55;;;;;;;8.60;4.68;;;;;;;31.00;33.40;101483.47;5029631;27;96896;-71
2023/09/09 10:04:23;;;;;;;10.40;6.50;;;;;;;30.86;33.19;101481.41;5030508;27;100889;-69
2023/09/09 10:06:52;;;;;;;10.65;5.57;;;;;;;31.06;33.34;101482.81;5028743;28;97561;-70
2023/09/09 10:09:26;;;;;;;11.57;6.95;;;;;;;31.17;32.55;101468.00;5032163;27;97265;-71
2023/09/09 10:12:11;;;;;;;12.48;5.05;;;;;;;31.47;32.98;101477.34;5030449;27;97867;-71
2023/09/09 10:14:39;;;;;;;9.05;5.00;;;;;;;31.55;32.78;101471.88;5032328;28;96934;-71
2023/09/09 10:17:07;;;;;;;9.05;5.25;;;;;;;31.34;32.32;101466.09;5031813;28;96748;-71
2023/09/09 10:19:35;;;;;;;9.45;5.03;;;;;;;31.55;31.49;101466.41;5033014;28;96836;-70
2023/09/09 10:22:02;;;;;;;7.13;4.85;;;;;;;31.33;31.89;101462.50;5031811;28;99899;-70
2023/09/09 10:24:30;;;;;;;5.68;5.00;;;;;;;31.37;30.84;101458.44;5031791;28;98857;-70
2023/09/09 10:27:00;;;;;;;8.55;4.60;;;;;;;31.42;30.72;101466.09;5030509;28;97285;-69
2023/09/09 10:29:27;;;;;;;9.23;4.38;;;;;;;31.43;30.17;101455.00;5028612;28;98786;-70
2023/09/09 10:31:56;;;;;;;7.45;4.70;;;;;;;31.61;30.62;101452.94;5031769;27;99278;-70
2023/09/09 10:34:23;;;;;;;8.55;4.75;;;;;;;31.75;30.69;101456.00;5029774;28;102431;-71
2023/09/09 10:36:52;;;;;;;10.50;4.03;;;;;;;31.66;30.89;101441.50;5033147;28;96823;-71
2023/09/09 10:39:19;;;;;;;5.75;4.53;;;;;;;31.53;30.81;101454.81;5033384;27;96809;-70
2023/09/09 10:41:46;;;;;;;4.63;3.92;;;;;;;31.54;29.46;101448.31;5031115;28;98922;-71
2023/09/09 10:44:15;;;;;;;5.10;3.92;;;;;;;31.66;29.14;101455.16;5032213;28;99281;-71
2023/09/09 10:46:42;;;;;;;5.25;3.60;;;;;;;31.53;28.88;101458.38;5032429;28;96772;-71
2023/09/09 10:49:09;;;;;;;11.63;3.83;;;;;;;31.56;28.77;101443.53;5032474;27;96962;-70
2023/09/09 10:51:45;;;;;;;7.72;4.22;;;;;;;31.37;29.13;101450.25;5029926;27;99059;-70
2023/09/09 10:54:14;;;;;;;7.82;4.10;;;;;;;31.45;28.96;101439.28;5031798;28;99100;-70
2023/09/09 10:56:45;;;;;;;8.38;3.90;;;;;;;31.58;28.29;101439.59;5032255;28;97165;-71
2023/09/09 10:59:18;;;;;;;8.15;3.95;;;;;;;31.65;28.14;101442.50;5031029;27;98112;-70
2023/09/09 11:01:45;;;;;;;5.65;3.83;;;;;;;31.81;27.64;101439.75;5029968;28;99056;-71
2023/09/09 11:04:20;;;;;;;8.00;4.00;;;;;;;31.70;27.41;101437.41;5028485;27;97572;-71
2023/09/09 11:06:59;;;;;;;6.30;3.70;;;;;;;31.77;27.62;101443.00;5032131;27;97654;-71
2023/09/09 11:09:29;;;;;;;9.98;3.90;;;;;;;31.97;28.03;101436.94;5026710;27;96832;-70
2023/09/09 11:11:56;;;;;;;7.47;4.50;;;;;;;31.58;27.91;101433.28;5031689;27;102215;-71
2023/09/09 11:14:30;;;;;;;4.38;3.60;;;;;;;31.72;28.33;101431.72;5032423;28;98833;-70
2023/09/09 11:16:56;;;;;;;5.00;3.63;;;;;;;31.97;28.26;101428.75;5032383;28;96721;-70